createdAt,value
2018-01-03T00:00:30.096Z,0
2018-01-03T00:01:30.812Z,0
2018-01-03T00:02:31.530Z,0
2018-01-03T00:03:32.236Z,0
2018-01-03T00:04:32.940Z,0
2018-01-03T00:05:33.655Z,0
2018-01-03T00:06:34.357Z,0
2018-01-03T00:07:35.059Z,0
2018-01-03T00:08:35.761Z,0
2018-01-03T00:09:36.477Z,0
2018-01-03T00:10:37.192Z,0
2018-01-03T00:11:37.894Z,0
2018-01-03T00:12:38.609Z,0
2018-01-03T00:13:39.311Z,0
2018-01-03T00:14:40.014Z,0
2018-01-03T00:15:40.716Z,0
2018-01-03T00:16:41.418Z,0
2018-01-03T00:17:42.120Z,0
2018-01-03T00:18:42.825Z,0
2018-01-03T00:19:43.527Z,0
2018-01-03T00:20:44.231Z,0
2018-01-03T00:21:44.934Z,0
2018-01-03T00:22:45.637Z,0
2018-01-03T00:23:46.351Z,0
2018-01-03T00:24:47.053Z,0
2018-01-03T00:25:47.756Z,0
2018-01-03T00:26:48.459Z,0
2018-01-03T00:27:49.177Z,0
2018-01-03T00:28:49.876Z,0
2018-01-03T00:29:50.578Z,0
2018-01-03T00:30:51.279Z,0
2018-01-03T00:31:51.983Z,0
2018-01-03T00:32:52.686Z,0
2018-01-03T00:33:53.388Z,0
2018-01-03T00:34:54.093Z,0
2018-01-03T00:35:54.797Z,0
2018-01-03T00:36:55.501Z,0
2018-01-03T00:37:56.205Z,0
2018-01-03T00:38:56.908Z,0
2018-01-03T00:39:57.612Z,0
2018-01-03T00:40:58.314Z,0
2018-01-03T00:41:59.016Z,0
2018-01-03T00:42:59.717Z,0
2018-01-03T00:44:00.421Z,0
2018-01-03T00:45:01.136Z,0
2018-01-03T00:46:01.839Z,0
2018-01-03T00:47:02.544Z,0
2018-01-03T00:48:03.247Z,0
2018-01-03T00:49:03.948Z,0
2018-01-03T00:50:04.651Z,0
2018-01-03T00:51:05.353Z,0
2018-01-03T00:52:06.055Z,0
2018-01-03T00:53:06.759Z,0
2018-01-03T00:54:07.474Z,0
2018-01-03T00:55:08.195Z,0
2018-01-03T00:56:08.892Z,0
2018-01-03T00:57:09.594Z,0
2018-01-03T00:58:10.310Z,0
2018-01-03T00:59:11.012Z,0
2018-01-03T01:00:11.715Z,0
2018-01-03T01:01:12.416Z,0
2018-01-03T01:02:13.118Z,0
2018-01-03T01:03:13.820Z,0
2018-01-03T01:04:14.523Z,0
2018-01-03T01:05:15.227Z,0
2018-01-03T01:06:15.930Z,0
2018-01-03T01:07:16.646Z,0
2018-01-03T01:08:17.349Z,0
2018-01-03T01:09:18.051Z,0
2018-01-03T01:10:18.771Z,0
2018-01-03T01:11:19.489Z,0
2018-01-03T01:12:20.191Z,0
2018-01-03T01:13:20.893Z,0
2018-01-03T01:14:21.597Z,0
2018-01-03T01:15:22.300Z,0
2018-01-03T01:16:23.016Z,0
2018-01-03T01:17:23.720Z,0
2018-01-03T01:18:24.421Z,0
2018-01-03T01:19:25.123Z,0
2018-01-03T01:20:25.824Z,0
2018-01-03T01:21:26.529Z,0
2018-01-03T01:22:27.231Z,0
2018-01-03T01:23:27.946Z,0
2018-01-03T01:24:28.649Z,0
2018-01-03T01:25:29.353Z,0
2018-01-03T01:26:30.056Z,0
2018-01-03T01:27:30.773Z,0
2018-01-03T01:28:31.477Z,0
2018-01-03T01:29:32.193Z,0
2018-01-03T01:30:32.896Z,0
2018-01-03T01:31:33.614Z,0
2018-01-03T01:32:34.318Z,0
2018-01-03T01:33:35.036Z,0
2018-01-03T01:34:35.737Z,0
2018-01-03T01:35:36.440Z,0
2018-01-03T01:36:37.144Z,0
2018-01-03T01:37:37.847Z,0
2018-01-03T01:38:38.550Z,0
2018-01-03T01:39:39.254Z,0
2018-01-03T01:40:39.958Z,0
2018-01-03T01:41:40.663Z,0
2018-01-03T01:42:41.367Z,0
2018-01-03T01:43:42.071Z,0
2018-01-03T01:44:42.774Z,0
2018-01-03T01:45:43.480Z,0
2018-01-03T01:46:44.198Z,0
2018-01-03T01:47:44.899Z,0
2018-01-03T01:48:45.602Z,0
2018-01-03T01:49:46.307Z,0
2018-01-03T01:50:47.023Z,0
2018-01-03T01:51:47.725Z,0
2018-01-03T01:52:48.428Z,0
2018-01-03T01:53:49.129Z,0
2018-01-03T01:54:49.846Z,0
2018-01-03T01:55:50.563Z,0
2018-01-03T01:56:51.280Z,0
2018-01-03T01:57:51.984Z,0
2018-01-03T01:58:52.702Z,0
2018-01-03T01:59:53.407Z,0
2018-01-03T02:00:54.110Z,0
2018-01-03T02:01:54.813Z,0
2018-01-03T02:02:55.517Z,0
2018-01-03T02:03:56.223Z,0
2018-01-03T02:04:56.927Z,0
2018-01-03T02:05:57.633Z,0
2018-01-03T02:06:58.352Z,0
2018-01-03T02:07:59.057Z,0
2018-01-03T02:08:59.774Z,0
2018-01-03T02:10:00.479Z,0
2018-01-03T02:11:01.184Z,0
2018-01-03T02:12:01.886Z,0
2018-01-03T02:13:02.591Z,0
2018-01-03T02:14:03.294Z,0
2018-01-03T02:15:03.998Z,0
2018-01-03T02:16:04.702Z,0
2018-01-03T02:17:05.422Z,0
2018-01-03T02:18:06.140Z,0
2018-01-03T02:19:06.843Z,0
2018-01-03T02:20:07.551Z,0
2018-01-03T02:21:08.251Z,0
2018-01-03T02:22:08.971Z,0
2018-01-03T02:23:09.678Z,0
2018-01-03T02:24:10.382Z,0
2018-01-03T02:25:11.087Z,0
2018-01-03T02:26:11.806Z,0
2018-01-03T02:27:12.511Z,0
2018-01-03T02:28:13.228Z,0
2018-01-03T02:29:13.933Z,0
2018-01-03T02:30:14.639Z,0
2018-01-03T02:31:15.343Z,0
2018-01-03T02:32:16.047Z,0
2018-01-03T02:33:16.751Z,0
2018-01-03T02:34:17.456Z,0
2018-01-03T02:35:18.216Z,0
2018-01-03T02:36:18.864Z,0
2018-01-03T02:37:19.571Z,0
2018-01-03T02:38:20.277Z,0
2018-01-03T02:39:20.980Z,0
2018-01-03T02:40:21.686Z,0
2018-01-03T02:41:22.390Z,0
2018-01-03T02:42:23.108Z,0
2018-01-03T02:43:23.828Z,0
2018-01-03T02:44:24.548Z,0
2018-01-03T02:45:25.252Z,0
2018-01-03T02:46:25.971Z,0
2018-01-03T02:47:26.676Z,0
2018-01-03T02:48:27.382Z,0
2018-01-03T02:49:28.085Z,0
2018-01-03T02:50:28.789Z,0
2018-01-03T02:51:29.493Z,0
2018-01-03T02:52:30.195Z,0
2018-01-03T02:53:30.900Z,0
2018-01-03T02:54:31.618Z,0
2018-01-03T02:55:32.322Z,0
2018-01-03T02:56:33.044Z,0
2018-01-03T02:57:33.748Z,0
2018-01-03T02:58:34.457Z,0
2018-01-03T02:59:35.176Z,0
2018-01-03T03:00:35.880Z,0
2018-01-03T03:01:36.583Z,0
2018-01-03T03:02:37.301Z,0
2018-01-03T03:03:38.006Z,0
2018-01-03T03:04:38.709Z,0
2018-01-03T03:05:39.414Z,0
2018-01-03T03:06:40.119Z,0
2018-01-03T03:07:40.824Z,0
2018-01-03T03:08:41.529Z,0
2018-01-03T03:09:42.235Z,0
2018-01-03T03:10:42.954Z,0
2018-01-03T03:11:43.673Z,0
2018-01-03T03:12:44.376Z,0
2018-01-03T03:13:45.080Z,0
2018-01-03T03:14:45.785Z,0
2018-01-03T03:15:46.489Z,0
2018-01-03T03:16:47.194Z,0
2018-01-03T03:17:47.898Z,0
2018-01-03T03:18:48.602Z,0
2018-01-03T03:19:49.306Z,0
2018-01-03T03:20:50.011Z,0
2018-01-03T03:21:50.719Z,0
2018-01-03T03:22:51.422Z,0
2018-01-03T03:23:52.140Z,0
2018-01-03T03:24:52.844Z,0
2018-01-03T03:25:53.547Z,0
2018-01-03T03:26:54.252Z,0
2018-01-03T03:27:54.955Z,0
2018-01-03T03:28:55.673Z,0
2018-01-03T03:29:56.378Z,0
2018-01-03T03:30:57.104Z,0
2018-01-03T03:31:57.804Z,0
2018-01-03T03:32:58.510Z,0
2018-01-03T03:33:59.215Z,0
2018-01-03T03:34:59.920Z,0
2018-01-03T03:36:00.627Z,0
2018-01-03T03:37:01.333Z,0
2018-01-03T03:38:02.040Z,0
2018-01-03T03:39:02.746Z,0
2018-01-03T03:40:03.454Z,0
2018-01-03T03:41:04.157Z,0
2018-01-03T03:42:04.874Z,0
2018-01-03T03:43:05.581Z,0
2018-01-03T03:44:06.285Z,0
2018-01-03T03:45:07.003Z,0
2018-01-03T03:46:07.706Z,0
2018-01-03T03:47:08.410Z,0
2018-01-03T03:48:09.130Z,0
2018-01-03T03:49:09.838Z,0
2018-01-03T03:50:10.544Z,0
2018-01-03T03:51:11.249Z,0
2018-01-03T03:52:11.953Z,0
2018-01-03T03:53:12.659Z,0
2018-01-03T03:54:13.378Z,0
2018-01-03T03:55:14.082Z,0
2018-01-03T03:56:14.800Z,0
2018-01-03T03:57:15.504Z,0
2018-01-03T03:58:16.208Z,0
2018-01-03T03:59:16.914Z,0
2018-01-03T04:00:17.618Z,0
2018-01-03T04:01:18.323Z,0
2018-01-03T04:02:19.027Z,0
2018-01-03T04:03:19.733Z,0
2018-01-03T04:04:20.439Z,0
2018-01-03T04:05:21.160Z,0
2018-01-03T04:06:21.867Z,0
2018-01-03T04:07:22.572Z,0
2018-01-03T04:08:23.277Z,0
2018-01-03T04:09:23.983Z,0
2018-01-03T04:10:24.689Z,0
2018-01-03T04:11:25.394Z,0
2018-01-03T04:12:26.101Z,0
2018-01-03T04:13:26.819Z,0
2018-01-03T04:14:27.523Z,0
2018-01-03T04:15:28.240Z,0
2018-01-03T04:16:28.945Z,0
2018-01-03T04:17:29.650Z,0
2018-01-03T04:18:30.354Z,0
2018-01-03T04:19:31.060Z,0
2018-01-03T04:20:31.766Z,0
2018-01-03T04:21:32.488Z,0
2018-01-03T04:22:33.193Z,0
2018-01-03T04:23:33.900Z,0
2018-01-03T04:24:34.605Z,0
2018-01-03T04:25:35.312Z,0
2018-01-03T04:26:36.019Z,0
2018-01-03T04:27:36.726Z,0
2018-01-03T04:28:37.432Z,0
2018-01-03T04:29:38.138Z,0
2018-01-03T04:30:38.843Z,0
2018-01-03T04:31:39.550Z,0
2018-01-03T04:32:40.269Z,0
2018-01-03T04:33:40.989Z,0
2018-01-03T04:34:41.695Z,0
2018-01-03T04:35:42.400Z,0
2018-01-03T04:36:43.107Z,0
2018-01-03T04:37:43.811Z,0
2018-01-03T04:38:44.532Z,0
2018-01-03T04:39:45.239Z,0
2018-01-03T04:40:45.945Z,0
2018-01-03T04:41:46.652Z,0
2018-01-03T04:42:47.358Z,0
2018-01-03T04:43:48.077Z,0
2018-01-03T04:44:48.784Z,0
2018-01-03T04:45:49.491Z,0
2018-01-03T04:46:50.197Z,0
2018-01-03T04:47:50.920Z,0
2018-01-03T04:48:51.627Z,0
2018-01-03T04:49:52.334Z,0
2018-01-03T04:50:53.042Z,0
2018-01-03T04:51:53.748Z,0
2018-01-03T04:52:54.469Z,0
2018-01-03T04:53:55.175Z,0
2018-01-03T04:54:55.882Z,0
2018-01-03T04:55:56.588Z,0
2018-01-03T04:56:57.294Z,0
2018-01-03T04:57:58.002Z,0
2018-01-03T04:58:58.708Z,0
2018-01-03T04:59:59.414Z,0
2018-01-03T05:01:00.126Z,0
2018-01-03T05:02:00.843Z,0
2018-01-03T05:03:01.551Z,0
2018-01-03T05:04:02.258Z,0
2018-01-03T05:05:02.981Z,0
2018-01-03T05:06:03.689Z,0
2018-01-03T05:07:04.396Z,0
2018-01-03T05:08:05.103Z,0
2018-01-03T05:09:05.810Z,0
2018-01-03T05:10:06.517Z,0
2018-01-03T05:11:07.225Z,0
2018-01-03T05:12:07.931Z,0
2018-01-03T05:13:08.639Z,0
2018-01-03T05:14:09.362Z,0
2018-01-03T05:15:10.084Z,0
2018-01-03T05:16:10.790Z,0
2018-01-03T05:17:11.495Z,0
2018-01-03T05:18:12.249Z,0
2018-01-03T05:19:12.971Z,0
2018-01-03T05:20:13.677Z,0
2018-01-03T05:21:14.383Z,0
2018-01-03T05:22:15.089Z,0
2018-01-03T05:23:15.796Z,0
2018-01-03T05:24:16.501Z,0
2018-01-03T05:25:17.225Z,0
2018-01-03T05:26:17.930Z,0
2018-01-03T05:27:18.638Z,0
2018-01-03T05:28:19.350Z,0
2018-01-03T05:29:20.065Z,0
2018-01-03T05:30:20.772Z,0
2018-01-03T05:31:21.492Z,0
2018-01-03T05:32:22.198Z,0
2018-01-03T05:33:22.905Z,0
2018-01-03T05:34:23.613Z,0
2018-01-03T05:35:24.321Z,0
2018-01-03T05:36:25.030Z,0
2018-01-03T05:37:25.737Z,0
2018-01-03T05:38:26.444Z,0
2018-01-03T05:39:27.152Z,0
2018-01-03T05:40:27.859Z,0
2018-01-03T05:41:28.566Z,0
2018-01-03T05:42:29.274Z,0
2018-01-03T05:43:29.984Z,0
2018-01-03T05:44:30.702Z,0
2018-01-03T05:45:31.410Z,0
2018-01-03T05:46:32.122Z,0
2018-01-03T05:47:32.842Z,0
2018-01-03T05:48:33.551Z,0
2018-01-03T05:49:34.283Z,0
2018-01-03T05:50:34.990Z,0
2018-01-03T05:51:35.695Z,0
2018-01-03T05:52:36.402Z,0
2018-01-03T05:53:37.125Z,0
2018-01-03T05:54:37.845Z,0
2018-01-03T05:55:38.565Z,0
2018-01-03T05:56:39.274Z,0
2018-01-03T05:57:39.998Z,0
2018-01-03T05:58:40.701Z,0
2018-01-03T05:59:41.426Z,0
2018-01-03T06:00:42.132Z,0
2018-01-03T06:01:42.854Z,0
2018-01-03T06:02:43.563Z,0
2018-01-03T06:03:44.269Z,0
2018-01-03T06:04:44.991Z,0
2018-01-03T06:05:45.699Z,0
2018-01-03T06:06:46.404Z,0
2018-01-03T06:07:47.111Z,0
2018-01-03T06:08:47.831Z,0
2018-01-03T06:09:48.537Z,0
2018-01-03T06:10:49.260Z,0
2018-01-03T06:11:49.966Z,0
2018-01-03T06:12:50.673Z,0
2018-01-03T06:13:51.381Z,0
2018-01-03T06:14:52.087Z,0
2018-01-03T06:15:52.793Z,0
2018-01-03T06:16:53.500Z,0
2018-01-03T06:17:54.206Z,0
2018-01-03T06:18:54.914Z,0
2018-01-03T06:19:55.624Z,0
2018-01-03T06:20:56.339Z,0
2018-01-03T06:21:57.061Z,0
2018-01-03T06:22:57.769Z,0
2018-01-03T06:23:58.477Z,0
2018-01-03T06:24:59.184Z,0
2018-01-03T06:25:59.906Z,0
2018-01-03T06:27:00.612Z,0
2018-01-03T06:28:01.318Z,0
2018-01-03T06:29:02.036Z,0
2018-01-03T06:30:02.760Z,0
2018-01-03T06:31:03.466Z,0
2018-01-03T06:32:04.174Z,0
2018-01-03T06:33:04.892Z,0
2018-01-03T06:34:05.598Z,0
2018-01-03T06:35:06.303Z,0
2018-01-03T06:36:07.012Z,0
2018-01-03T06:37:07.714Z,0
2018-01-03T06:38:08.419Z,0
2018-01-03T06:39:09.126Z,0
2018-01-03T06:40:09.832Z,0
2018-01-03T06:41:10.538Z,0
2018-01-03T06:42:11.258Z,0
2018-01-03T06:43:11.982Z,0
2018-01-03T06:44:12.691Z,0
2018-01-03T06:45:13.398Z,0
2018-01-03T06:46:14.106Z,0
2018-01-03T06:47:14.810Z,0
2018-01-03T06:48:15.518Z,0
2018-01-03T06:49:16.224Z,0
2018-01-03T06:50:16.930Z,0
2018-01-03T06:51:17.634Z,0
2018-01-03T06:52:18.355Z,0
2018-01-03T06:53:19.060Z,0
2018-01-03T06:54:19.767Z,0
2018-01-03T06:55:20.473Z,0
2018-01-03T06:56:21.182Z,0
2018-01-03T06:57:21.885Z,0
2018-01-03T06:58:22.591Z,0
2018-01-03T06:59:23.308Z,0
2018-01-03T07:00:24.030Z,0
2018-01-03T07:01:24.734Z,4
2018-01-03T07:02:25.440Z,4
2018-01-03T07:03:26.145Z,0
2018-01-03T07:04:26.856Z,4
2018-01-03T07:05:27.557Z,4
2018-01-03T07:06:28.262Z,4
2018-01-03T07:07:28.980Z,4
2018-01-03T07:08:29.697Z,4
2018-01-03T07:09:30.419Z,8
2018-01-03T07:10:31.126Z,8
2018-01-03T07:11:31.832Z,8
2018-01-03T07:12:32.540Z,12
2018-01-03T07:13:33.247Z,16
2018-01-03T07:14:33.953Z,16
2018-01-03T07:15:34.671Z,16
2018-01-03T07:16:35.376Z,20
2018-01-03T07:17:36.081Z,28
2018-01-03T07:18:36.786Z,28
2018-01-03T07:19:37.504Z,32
2018-01-03T07:20:38.225Z,36
2018-01-03T07:21:38.945Z,44
2018-01-03T07:22:39.650Z,48
2018-01-03T07:23:40.369Z,52
2018-01-03T07:24:41.075Z,60
2018-01-03T07:25:41.780Z,64
2018-01-03T07:26:42.486Z,60
2018-01-03T07:27:43.208Z,52
2018-01-03T07:28:43.916Z,48
2018-01-03T07:29:44.622Z,56
2018-01-03T07:30:45.329Z,64
2018-01-03T07:31:46.036Z,80
2018-01-03T07:32:46.746Z,92
2018-01-03T07:33:47.449Z,92
2018-01-03T07:34:48.156Z,96
2018-01-03T07:35:48.875Z,104
2018-01-03T07:36:49.584Z,136
2018-01-03T07:37:50.290Z,152
2018-01-03T07:38:50.999Z,124
2018-01-03T07:39:51.722Z,96
2018-01-03T07:40:52.428Z,76
2018-01-03T07:41:53.147Z,64
2018-01-03T07:42:53.854Z,60
2018-01-03T07:43:54.560Z,44
2018-01-03T07:44:55.264Z,40
2018-01-03T07:45:55.974Z,64
2018-01-03T07:46:56.679Z,120
2018-01-03T07:47:57.386Z,160
2018-01-03T07:48:58.106Z,184
2018-01-03T07:49:58.811Z,208
2018-01-03T07:50:59.520Z,244
2018-01-03T07:52:00.228Z,284
2018-01-03T07:53:00.937Z,320
2018-01-03T07:54:01.660Z,340
2018-01-03T07:55:02.381Z,388
2018-01-03T07:56:03.104Z,412
2018-01-03T07:57:03.827Z,436
2018-01-03T07:58:04.535Z,384
2018-01-03T07:59:05.241Z,316
2018-01-03T08:00:05.962Z,236
2018-01-03T08:01:06.670Z,176
2018-01-03T08:02:07.375Z,144
2018-01-03T08:03:08.095Z,156
2018-01-03T08:04:08.800Z,220
2018-01-03T08:05:09.507Z,192
2018-01-03T08:06:10.212Z,204
2018-01-03T08:07:10.920Z,256
2018-01-03T08:08:11.628Z,324
2018-01-03T08:09:12.335Z,332
2018-01-03T08:10:13.043Z,316
2018-01-03T08:11:13.749Z,356
2018-01-03T08:12:14.457Z,448
2018-01-03T08:13:15.168Z,600
2018-01-03T08:14:15.886Z,732
2018-01-03T08:15:16.600Z,760
2018-01-03T08:16:17.300Z,708
2018-01-03T08:17:18.006Z,680
2018-01-03T08:18:18.725Z,692
2018-01-03T08:19:19.466Z,756
2018-01-03T08:20:20.154Z,792
2018-01-03T08:21:20.860Z,824
2018-01-03T08:22:21.571Z,824
2018-01-03T08:23:22.287Z,948
2018-01-03T08:24:22.996Z,1120
2018-01-03T08:25:23.719Z,1108
2018-01-03T08:26:24.445Z,1344
2018-01-03T08:27:25.150Z,1456
2018-01-03T08:28:25.873Z,1516
2018-01-03T08:29:26.585Z,1620
2018-01-03T08:30:27.290Z,2072
2018-01-03T08:31:27.998Z,2124
2018-01-03T08:32:28.704Z,1568
2018-01-03T08:33:29.411Z,1716
2018-01-03T08:34:30.134Z,2000
2018-01-03T08:35:30.844Z,1908
2018-01-03T08:36:31.551Z,2144
2018-01-03T08:37:32.261Z,1876
2018-01-03T08:38:32.971Z,1576
2018-01-03T08:39:33.681Z,1444
2018-01-03T08:40:34.390Z,1656
2018-01-03T08:41:35.097Z,1980
2018-01-03T08:42:35.819Z,2456
2018-01-03T08:43:36.527Z,3312
2018-01-03T08:44:37.238Z,3692
2018-01-03T08:45:37.950Z,3228
2018-01-03T08:46:38.659Z,2796
2018-01-03T08:47:39.368Z,2328
2018-01-03T08:48:40.079Z,2880
2018-01-03T08:49:40.786Z,2676
2018-01-03T08:50:41.496Z,3100
2018-01-03T08:51:42.206Z,3488
2018-01-03T08:52:42.915Z,2372
2018-01-03T08:53:43.625Z,2444
2018-01-03T08:54:44.332Z,2444
2018-01-03T08:55:45.041Z,2068
2018-01-03T08:56:45.765Z,2068
2018-01-03T08:57:46.478Z,2544
2018-01-03T08:58:47.200Z,3364
2018-01-03T08:59:47.908Z,3480
2018-01-03T09:00:48.617Z,3872
2018-01-03T09:01:49.327Z,4464
2018-01-03T09:02:50.038Z,3504
2018-01-03T09:03:50.763Z,5112
2018-01-03T09:04:51.475Z,5484
2018-01-03T09:05:52.184Z,6648
2018-01-03T09:06:52.895Z,6580
2018-01-03T09:07:53.621Z,6908
2018-01-03T09:08:54.332Z,4648
2018-01-03T09:09:55.042Z,4216
2018-01-03T09:10:55.752Z,3924
2018-01-03T09:11:56.462Z,4124
2018-01-03T09:12:57.173Z,4944
2018-01-03T09:13:57.886Z,3844
2018-01-03T09:14:58.599Z,4892
2018-01-03T09:15:59.323Z,5044
2018-01-03T09:17:00.040Z,3672
2018-01-03T09:18:00.757Z,3568
2018-01-03T09:19:01.470Z,4004
2018-01-03T09:20:02.181Z,4720
2018-01-03T09:21:02.892Z,3752
2018-01-03T09:22:03.605Z,2448
2018-01-03T09:23:04.324Z,2176
2018-01-03T09:24:05.099Z,2752
2018-01-03T09:25:05.759Z,2548
2018-01-03T09:26:06.468Z,2412
2018-01-03T09:27:07.192Z,2524
2018-01-03T09:28:07.900Z,2952
2018-01-03T09:29:08.613Z,3200
2018-01-03T09:30:09.336Z,2696
2018-01-03T09:31:10.046Z,3276
2018-01-03T09:32:10.769Z,4068
2018-01-03T09:33:11.482Z,4512
2018-01-03T09:34:12.191Z,4660
2018-01-03T09:35:12.918Z,4076
2018-01-03T09:36:13.630Z,2964
2018-01-03T09:37:14.356Z,3848
2018-01-03T09:38:15.068Z,4384
2018-01-03T09:39:15.778Z,6656
2018-01-03T09:40:16.488Z,6240
2018-01-03T09:41:17.212Z,6780
2018-01-03T09:42:17.927Z,9024
2018-01-03T09:43:18.650Z,11496
2018-01-03T09:44:19.360Z,6728
2018-01-03T09:45:20.071Z,7096
2018-01-03T09:46:20.783Z,6192
2018-01-03T09:47:21.495Z,10520
2018-01-03T09:48:22.207Z,8260
2018-01-03T09:49:22.918Z,7608
2018-01-03T09:50:23.647Z,13404
2018-01-03T09:51:24.360Z,9692
2018-01-03T09:52:25.072Z,9748
2018-01-03T09:53:25.783Z,8584
2018-01-03T09:54:26.497Z,7900
2018-01-03T09:55:27.211Z,9380
2018-01-03T09:56:27.926Z,5064
2018-01-03T09:57:28.638Z,3976
2018-01-03T09:58:29.364Z,2636
2018-01-03T09:59:30.076Z,2544
2018-01-03T10:00:30.786Z,2440
2018-01-03T10:01:31.495Z,2604
2018-01-03T10:02:32.221Z,2152
2018-01-03T10:03:32.931Z,2388
2018-01-03T10:04:33.642Z,3124
2018-01-03T10:05:34.354Z,3992
2018-01-03T10:06:35.066Z,5008
2018-01-03T10:07:35.777Z,4836
2018-01-03T10:08:36.492Z,4908
2018-01-03T10:09:37.216Z,5340
2018-01-03T10:10:37.926Z,6176
2018-01-03T10:11:38.638Z,6120
2018-01-03T10:12:39.362Z,6732
2018-01-03T10:13:40.075Z,6560
2018-01-03T10:14:40.800Z,5956
2018-01-03T10:15:41.512Z,6196
2018-01-03T10:16:42.223Z,6960
2018-01-03T10:17:42.934Z,5908
2018-01-03T10:18:43.647Z,5008
2018-01-03T10:19:44.374Z,4876
2018-01-03T10:20:45.098Z,4764
2018-01-03T10:21:45.810Z,4812
2018-01-03T10:22:46.522Z,4472
2018-01-03T10:23:47.236Z,4060
2018-01-03T10:24:47.948Z,3312
2018-01-03T10:25:48.660Z,3280
2018-01-03T10:26:49.370Z,4292
2018-01-03T10:27:50.082Z,5492
2018-01-03T10:28:50.793Z,5424
2018-01-03T10:29:51.503Z,3180
2018-01-03T10:30:52.231Z,2040
2018-01-03T10:31:52.953Z,2412
2018-01-03T10:32:53.663Z,3368
2018-01-03T10:33:54.378Z,3688
2018-01-03T10:34:55.082Z,3804
2018-01-03T10:35:55.791Z,4292
2018-01-03T10:36:56.549Z,3736
2018-01-03T10:37:57.216Z,3736
2018-01-03T10:38:57.928Z,3196
2018-01-03T10:39:58.638Z,3468
2018-01-03T10:40:59.349Z,3212
2018-01-03T10:42:00.060Z,2808
2018-01-03T10:43:00.770Z,2864
2018-01-03T10:44:01.496Z,2672
2018-01-03T10:45:02.210Z,2548
2018-01-03T10:46:02.931Z,2400
2018-01-03T10:47:03.639Z,2568
2018-01-03T10:48:04.366Z,2416
2018-01-03T10:49:05.075Z,2084
2018-01-03T10:50:05.784Z,1588
2018-01-03T10:51:06.508Z,1436
2018-01-03T10:52:07.233Z,1516
2018-01-03T10:53:07.944Z,1692
2018-01-03T10:54:08.652Z,1592
2018-01-03T10:55:09.360Z,1468
2018-01-03T10:56:10.083Z,1616
2018-01-03T10:57:10.810Z,1684
2018-01-03T10:58:11.516Z,1644
2018-01-03T10:59:12.224Z,1368
2018-01-03T11:00:12.930Z,1428
2018-01-03T11:01:13.651Z,1476
2018-01-03T11:02:14.360Z,1256
2018-01-03T11:03:15.070Z,1336
2018-01-03T11:04:15.781Z,1452
2018-01-03T11:05:16.490Z,1476
2018-01-03T11:06:17.197Z,1276
2018-01-03T11:07:17.906Z,1352
2018-01-03T11:08:18.624Z,1332
2018-01-03T11:09:19.333Z,1332
2018-01-03T11:10:20.058Z,1248
2018-01-03T11:11:20.766Z,1172
2018-01-03T11:12:21.477Z,1324
2018-01-03T11:13:22.199Z,1316
2018-01-03T11:14:22.912Z,1296
2018-01-03T11:15:23.620Z,1312
2018-01-03T11:16:24.328Z,1464
2018-01-03T11:17:25.038Z,1388
2018-01-03T11:18:25.770Z,1200
2018-01-03T11:19:26.486Z,1128
2018-01-03T11:20:27.195Z,1260
2018-01-03T11:21:27.916Z,1120
2018-01-03T11:22:28.624Z,1120
2018-01-03T11:23:29.331Z,940
2018-01-03T11:24:30.043Z,1104
2018-01-03T11:25:30.752Z,864
2018-01-03T11:26:31.473Z,1076
2018-01-03T11:27:32.181Z,892
2018-01-03T11:28:32.887Z,944
2018-01-03T11:29:33.596Z,1108
2018-01-03T11:30:34.304Z,1052
2018-01-03T11:31:35.016Z,1184
2018-01-03T11:32:35.725Z,1188
2018-01-03T11:33:36.433Z,1328
2018-01-03T11:34:37.143Z,1476
2018-01-03T11:35:37.851Z,1460
2018-01-03T11:36:38.572Z,1900
2018-01-03T11:37:39.295Z,1780
2018-01-03T11:38:40.003Z,2664
2018-01-03T11:39:40.710Z,2132
2018-01-03T11:40:41.422Z,2900
2018-01-03T11:41:42.130Z,2580
2018-01-03T11:42:42.838Z,2016
2018-01-03T11:43:43.547Z,1856
2018-01-03T11:44:44.257Z,1876
2018-01-03T11:45:44.979Z,1948
2018-01-03T11:46:45.687Z,1616
2018-01-03T11:47:46.395Z,1748
2018-01-03T11:48:47.105Z,1580
2018-01-03T11:49:47.828Z,1800
2018-01-03T11:50:48.536Z,1520
2018-01-03T11:51:49.244Z,1252
2018-01-03T11:52:49.951Z,1420
2018-01-03T11:53:50.660Z,1432
2018-01-03T11:54:51.381Z,1136
2018-01-03T11:55:52.091Z,940
2018-01-03T11:56:52.800Z,1404
2018-01-03T11:57:53.508Z,1200
2018-01-03T11:58:54.217Z,1356
2018-01-03T11:59:54.923Z,1396
2018-01-03T12:00:55.633Z,1232
2018-01-03T12:01:56.342Z,1584
2018-01-03T12:02:57.049Z,1252
2018-01-03T12:03:57.757Z,1900
2018-01-03T12:04:58.466Z,1552
2018-01-03T12:05:59.175Z,1580
2018-01-03T12:06:59.884Z,1592
2018-01-03T12:08:00.593Z,1736
2018-01-03T12:09:01.302Z,1572
2018-01-03T12:10:02.012Z,1236
2018-01-03T12:11:02.719Z,1504
2018-01-03T12:12:03.445Z,1968
2018-01-03T12:13:04.152Z,1912
2018-01-03T12:14:04.861Z,1664
2018-01-03T12:15:05.570Z,1384
2018-01-03T12:16:06.292Z,1256
2018-01-03T12:17:07.002Z,1304
2018-01-03T12:18:07.711Z,1404
2018-01-03T12:19:08.420Z,1396
2018-01-03T12:20:09.128Z,1784
2018-01-03T12:21:09.835Z,1276
2018-01-03T12:22:10.555Z,1044
2018-01-03T12:23:11.264Z,1508
2018-01-03T12:24:11.972Z,1680
2018-01-03T12:25:12.683Z,1092
2018-01-03T12:26:13.393Z,988
2018-01-03T12:27:14.102Z,1340
2018-01-03T12:28:14.811Z,1556
2018-01-03T12:29:15.534Z,1388
2018-01-03T12:30:16.258Z,1108
2018-01-03T12:31:16.978Z,1256
2018-01-03T12:32:17.687Z,1016
2018-01-03T12:33:18.410Z,1052
2018-01-03T12:34:19.119Z,1232
2018-01-03T12:35:19.830Z,1080
2018-01-03T12:36:20.539Z,1236
2018-01-03T12:37:21.262Z,1200
2018-01-03T12:38:21.973Z,1140
2018-01-03T12:39:22.695Z,1272
2018-01-03T12:40:23.403Z,1204
2018-01-03T12:41:24.112Z,1392
2018-01-03T12:42:24.825Z,1528
2018-01-03T12:43:25.547Z,1496
2018-01-03T12:44:26.255Z,1536
2018-01-03T12:45:26.964Z,1448
2018-01-03T12:46:27.674Z,1632
2018-01-03T12:47:28.385Z,1360
2018-01-03T12:48:29.096Z,1472
2018-01-03T12:49:29.842Z,1248
2018-01-03T12:50:30.542Z,1176
2018-01-03T12:51:31.251Z,1392
2018-01-03T12:52:31.960Z,1360
2018-01-03T12:53:32.669Z,1852
2018-01-03T12:54:33.379Z,1972
2018-01-03T12:55:34.086Z,1668
2018-01-03T12:56:34.793Z,2112
2018-01-03T12:57:35.504Z,1596
2018-01-03T12:58:36.210Z,1544
2018-01-03T12:59:36.919Z,1432
2018-01-03T13:00:37.642Z,1444
2018-01-03T13:01:38.365Z,1856
2018-01-03T13:02:39.073Z,1880
2018-01-03T13:03:39.797Z,1460
2018-01-03T13:04:40.508Z,1352
2018-01-03T13:05:41.215Z,1036
2018-01-03T13:06:41.922Z,988
2018-01-03T13:07:42.628Z,988
2018-01-03T13:08:43.353Z,1132
2018-01-03T13:09:44.060Z,1328
2018-01-03T13:10:44.782Z,1332
2018-01-03T13:11:45.491Z,1404
2018-01-03T13:12:46.202Z,1188
2018-01-03T13:13:46.912Z,1100
2018-01-03T13:14:47.620Z,1128
2018-01-03T13:15:48.343Z,1296
2018-01-03T13:16:49.053Z,1372
2018-01-03T13:17:49.760Z,1660
2018-01-03T13:18:50.468Z,1900
2018-01-03T13:19:51.190Z,2016
2018-01-03T13:20:51.898Z,1636
2018-01-03T13:21:52.608Z,1460
2018-01-03T13:22:53.318Z,1284
2018-01-03T13:23:54.072Z,1116
2018-01-03T13:24:54.734Z,1520
2018-01-03T13:25:55.443Z,1464
2018-01-03T13:26:56.151Z,1604
2018-01-03T13:27:56.884Z,1216
2018-01-03T13:28:57.592Z,996
2018-01-03T13:29:58.313Z,836
2018-01-03T13:30:59.021Z,1212
2018-01-03T13:31:59.743Z,1036
2018-01-03T13:33:00.471Z,1100
2018-01-03T13:34:01.190Z,924
2018-01-03T13:35:01.914Z,984
2018-01-03T13:36:02.623Z,920
2018-01-03T13:37:03.331Z,888
2018-01-03T13:38:04.041Z,1000
2018-01-03T13:39:04.748Z,1020
2018-01-03T13:40:05.458Z,1120
2018-01-03T13:41:06.167Z,1000
2018-01-03T13:42:06.876Z,832
2018-01-03T13:43:07.597Z,892
2018-01-03T13:44:08.313Z,1132
2018-01-03T13:45:09.016Z,1288
2018-01-03T13:46:09.725Z,1200
2018-01-03T13:47:10.432Z,972
2018-01-03T13:48:11.141Z,1052
2018-01-03T13:49:11.867Z,1228
2018-01-03T13:50:12.590Z,1168
2018-01-03T13:51:13.299Z,992
2018-01-03T13:52:14.006Z,832
2018-01-03T13:53:14.716Z,736
2018-01-03T13:54:15.427Z,696
2018-01-03T13:55:16.135Z,692
2018-01-03T13:56:16.842Z,552
2018-01-03T13:57:17.548Z,440
2018-01-03T13:58:18.269Z,452
2018-01-03T13:59:18.977Z,536
2018-01-03T14:00:19.685Z,652
2018-01-03T14:01:20.395Z,704
2018-01-03T14:02:21.103Z,768
2018-01-03T14:03:21.824Z,828
2018-01-03T14:04:22.548Z,940
2018-01-03T14:05:23.271Z,1160
2018-01-03T14:06:23.984Z,1080
2018-01-03T14:07:24.689Z,872
2018-01-03T14:08:25.413Z,748
2018-01-03T14:09:26.135Z,748
2018-01-03T14:10:26.859Z,892
2018-01-03T14:11:27.565Z,840
2018-01-03T14:12:28.290Z,852
2018-01-03T14:13:28.998Z,844
2018-01-03T14:14:29.708Z,680
2018-01-03T14:15:30.416Z,656